createdAt,value
2022-11-29T00:00:57.369Z,991.52
2022-11-29T00:06:01.559Z,991.56
2022-11-29T00:11:05.704Z,991.62
2022-11-29T00:16:09.931Z,991.63
2022-11-29T00:21:14.010Z,991.56
2022-11-29T00:26:16.312Z,991.61
2022-11-29T00:31:20.454Z,991.60
2022-11-29T00:36:22.754Z,991.66
2022-11-29T00:41:26.916Z,991.66
2022-11-29T00:46:29.171Z,991.63
2022-11-29T00:51:33.323Z,991.71
2022-11-29T00:56:37.514Z,991.75
2022-11-29T01:01:41.747Z,991.78
2022-11-29T01:06:45.831Z,991.74
2022-11-29T01:11:49.974Z,991.72
2022-11-29T01:16:54.224Z,991.79
2022-11-29T01:21:58.296Z,991.79
2022-11-29T01:27:02.499Z,991.85
2022-11-29T01:32:06.656Z,991.90
2022-11-29T01:37:10.796Z,991.94
2022-11-29T01:42:14.968Z,991.97
2022-11-29T01:47:19.155Z,991.98
2022-11-29T01:52:23.296Z,991.99
2022-11-29T01:57:27.431Z,991.95
2022-11-29T02:02:31.719Z,992.11
2022-11-29T02:07:35.837Z,992.08
2022-11-29T02:12:39.916Z,992.20
2022-11-29T02:17:44.082Z,992.23
2022-11-29T02:22:48.231Z,992.26
2022-11-29T02:27:52.422Z,992.21
2022-11-29T02:32:54.709Z,992.27
2022-11-29T02:37:58.824Z,992.36
2022-11-29T02:43:03.050Z,992.34
2022-11-29T02:48:07.195Z,992.35
2022-11-29T02:53:11.348Z,992.35
2022-11-29T02:58:15.514Z,992.44
2022-11-29T03:03:19.646Z,992.49
2022-11-29T03:08:23.872Z,992.59
2022-11-29T03:13:28.008Z,992.55
2022-11-29T03:18:32.150Z,992.58
2022-11-29T03:23:36.322Z,992.78
2022-11-29T03:28:40.486Z,992.74
2022-11-29T03:33:44.637Z,992.75
2022-11-29T03:38:48.808Z,992.86
2022-11-29T03:43:53.009Z,992.89
2022-11-29T03:48:57.122Z,992.83
2022-11-29T03:54:01.266Z,993.02
2022-11-29T03:59:05.470Z,992.99
2022-11-29T04:04:07.743Z,993.01
2022-11-29T04:09:11.894Z,993.09
2022-11-29T04:14:16.028Z,993.15
2022-11-29T04:19:18.345Z,993.19
2022-11-29T04:24:22.450Z,993.26
2022-11-29T04:29:24.742Z,993.32
2022-11-29T04:34:28.930Z,993.34
2022-11-29T04:39:33.052Z,993.34
2022-11-29T04:44:37.255Z,993.44
2022-11-29T04:49:41.409Z,993.54
2022-11-29T04:54:45.933Z,993.58
2022-11-29T04:59:49.735Z,993.55
2022-11-29T05:04:53.899Z,993.54
2022-11-29T05:09:58.068Z,993.67
2022-11-29T05:15:02.214Z,993.63
2022-11-29T05:20:06.389Z,993.76
2022-11-29T05:25:10.513Z,993.84
2022-11-29T05:30:14.694Z,993.83
2022-11-29T05:35:18.847Z,993.89
2022-11-29T05:40:23.011Z,994.01
2022-11-29T05:45:27.162Z,994.16
2022-11-29T05:50:31.372Z,994.17
2022-11-29T05:55:35.497Z,994.27
2022-11-29T06:00:39.678Z,994.27
2022-11-29T06:05:43.826Z,994.30
2022-11-29T06:10:47.963Z,994.43
2022-11-29T06:15:50.270Z,994.48
2022-11-29T06:20:54.449Z,994.57
2022-11-29T06:26:00.786Z,994.58
2022-11-29T06:31:00.875Z,994.66
2022-11-29T06:36:05.042Z,994.67
2022-11-29T06:41:09.144Z,994.73
2022-11-29T06:46:13.342Z,994.78
2022-11-29T06:51:15.596Z,994.83
2022-11-29T06:56:19.748Z,994.92
2022-11-29T07:01:24.002Z,994.88
2022-11-29T07:06:28.110Z,994.86
2022-11-29T07:11:32.234Z,994.77
2022-11-29T07:16:36.471Z,994.88
2022-11-29T07:21:40.590Z,994.89
2022-11-29T07:26:44.749Z,994.90
2022-11-29T07:31:48.935Z,994.94
2022-11-29T07:36:53.087Z,994.93
2022-11-29T07:41:57.239Z,995.02
2022-11-29T07:47:01.519Z,994.96
2022-11-29T07:52:05.563Z,995.03
2022-11-29T07:57:09.702Z,994.96
2022-11-29T08:02:13.923Z,995.02
2022-11-29T08:07:18.067Z,994.99
2022-11-29T08:12:22.239Z,995.11
2022-11-29T08:17:26.350Z,995.11
2022-11-29T08:22:30.496Z,995.05
2022-11-29T08:27:34.708Z,995.08
2022-11-29T08:32:38.853Z,995.05
2022-11-29T08:37:41.127Z,995.15
2022-11-29T08:42:45.414Z,995.13
2022-11-29T08:47:47.559Z,995.15
2022-11-29T08:52:51.750Z,995.14
2022-11-29T08:57:55.886Z,995.08
2022-11-29T09:03:00.050Z,995.08
2022-11-29T09:08:04.195Z,995.08
2022-11-29T09:13:08.373Z,995.04
2022-11-29T09:18:12.561Z,995.13
2022-11-29T09:23:16.694Z,995.14
2022-11-29T09:28:20.849Z,995.17
2022-11-29T09:33:25.007Z,995.22
2022-11-29T09:38:29.202Z,995.24
2022-11-29T09:43:33.328Z,995.27
2022-11-29T09:48:37.523Z,995.31
2022-11-29T09:53:41.775Z,995.37
2022-11-29T09:58:45.821Z,995.37
2022-11-29T10:03:49.962Z,995.41
2022-11-29T10:08:54.153Z,995.41
2022-11-29T10:13:58.303Z,995.54
2022-11-29T10:19:02.488Z,995.72
2022-11-29T10:24:06.623Z,995.79
2022-11-29T10:29:10.805Z,995.88
2022-11-29T10:34:13.061Z,996.03
2022-11-29T10:39:17.203Z,996.05
2022-11-29T10:44:19.519Z,996.29
2022-11-29T10:49:23.681Z,996.31
2022-11-29T10:54:27.821Z,996.39
2022-11-29T10:59:32.007Z,996.56
2022-11-29T11:04:36.167Z,996.60
2022-11-29T11:09:40.325Z,996.76
2022-11-29T11:14:44.880Z,996.79
2022-11-29T11:19:48.644Z,996.88
2022-11-29T11:24:52.818Z,996.99
2022-11-29T11:29:56.947Z,997.11
2022-11-29T11:35:01.146Z,997.24
2022-11-29T11:40:05.411Z,997.33
2022-11-29T11:45:09.476Z,997.24
2022-11-29T11:50:13.764Z,997.34
2022-11-29T11:55:17.756Z,997.26
2022-11-29T12:00:47.604Z,997.27
2022-11-29T12:05:26.114Z,997.20
2022-11-29T12:10:30.243Z,997.25
2022-11-29T12:15:34.429Z,997.20
2022-11-29T12:20:38.549Z,997.26
2022-11-29T12:25:42.830Z,997.24
2022-11-29T12:30:45.110Z,997.31
2022-11-29T12:35:49.162Z,997.38
2022-11-29T12:40:51.448Z,997.32
2022-11-29T12:45:55.639Z,997.31
2022-11-29T12:50:59.762Z,997.37
2022-11-29T12:56:03.960Z,997.27
2022-11-29T13:01:08.100Z,997.27
2022-11-29T13:11:17.038Z,997.12
2022-11-29T13:16:22.154Z,997.16
2022-11-29T13:21:24.726Z,997.16
2022-11-29T13:26:28.926Z,997.15
2022-11-29T13:31:33.113Z,997.14
2022-11-29T13:36:37.251Z,997.06
2022-11-29T13:41:41.374Z,997.03
2022-11-29T13:46:45.596Z,997.01
2022-11-29T13:51:49.724Z,997.02
2022-11-29T13:56:53.852Z,997.07
2022-11-29T14:01:58.037Z,996.97
2022-11-29T14:07:02.178Z,996.98
2022-11-29T14:12:06.321Z,997.09
2022-11-29T14:17:10.554Z,997.06
2022-11-29T14:22:14.653Z,997.01
2022-11-29T14:27:18.864Z,997.08
2022-11-29T14:32:21.098Z,997.00
2022-11-29T14:37:25.282Z,997.02
2022-11-29T14:42:27.527Z,997.11
2022-11-29T14:47:31.724Z,997.11
2022-11-29T14:52:35.870Z,997.18
2022-11-29T14:57:40.029Z,997.33
2022-11-29T15:02:44.192Z,997.28
2022-11-29T15:07:48.407Z,997.43
2022-11-29T15:12:52.509Z,997.53
2022-11-29T15:17:56.687Z,997.56
2022-11-29T15:23:00.881Z,997.64
2022-11-29T15:28:04.987Z,997.67
2022-11-29T15:33:09.193Z,997.73
2022-11-29T15:38:13.323Z,997.79
2022-11-29T15:43:17.503Z,997.81
2022-11-29T15:48:21.646Z,997.87
2022-11-29T15:53:25.783Z,997.95
2022-11-29T15:58:29.991Z,997.92
2022-11-29T16:03:34.143Z,998.00
2022-11-29T16:08:38.310Z,998.11
2022-11-29T16:13:42.457Z,998.10
2022-11-29T16:18:46.642Z,998.17
2022-11-29T16:23:50.806Z,998.18
2022-11-29T16:28:53.056Z,998.06
2022-11-29T16:33:57.185Z,998.15
2022-11-29T16:38:59.638Z,998.11
2022-11-29T16:44:03.641Z,998.18
2022-11-29T16:49:07.791Z,998.14
2022-11-29T16:54:11.988Z,998.19
2022-11-29T16:59:26.331Z,998.30
2022-11-29T17:04:23.875Z,998.28
2022-11-29T17:09:24.457Z,998.31
2022-11-29T17:14:28.658Z,998.32
2022-11-29T17:19:32.785Z,998.36
2022-11-29T17:24:36.961Z,998.40
2022-11-29T17:29:41.099Z,998.43
2022-11-29T17:34:45.531Z,998.41
2022-11-29T17:39:49.443Z,998.37
2022-11-29T17:44:53.612Z,998.46
2022-11-29T17:49:57.788Z,998.43
2022-11-29T17:55:01.921Z,998.52
2022-11-29T18:00:06.060Z,998.57
2022-11-29T18:05:10.226Z,998.56
2022-11-29T18:10:14.409Z,998.61
2022-11-29T18:15:18.584Z,998.65
2022-11-29T18:20:22.737Z,998.69
2022-11-29T18:25:38.255Z,998.65
2022-11-29T18:30:29.240Z,998.64
2022-11-29T18:35:31.452Z,998.65
2022-11-29T18:40:35.597Z,998.64
2022-11-29T18:45:39.795Z,998.65
2022-11-29T18:50:43.916Z,998.64
2022-11-29T18:55:48.101Z,998.71
2022-11-29T19:00:52.263Z,998.69
2022-11-29T19:05:56.394Z,998.65
2022-11-29T19:11:00.635Z,998.69
2022-11-29T19:16:04.792Z,998.63
2022-11-29T19:21:08.911Z,998.68
2022-11-29T19:26:13.049Z,998.72
2022-11-29T19:31:17.411Z,998.72
2022-11-29T19:36:21.389Z,998.74
2022-11-29T19:41:25.528Z,998.74
2022-11-29T19:46:29.805Z,998.80
2022-11-29T19:51:33.863Z,998.82
2022-11-29T19:56:38.050Z,998.83
2022-11-29T20:01:42.899Z,998.82
2022-11-29T20:06:46.384Z,998.89
2022-11-29T20:11:50.531Z,998.89
2022-11-29T20:16:54.692Z,998.91
2022-11-29T20:21:56.945Z,999.15
2022-11-29T20:27:01.104Z,999.09
2022-11-29T20:32:03.403Z,999.12
2022-11-29T20:37:07.592Z,999.14
2022-11-29T20:42:11.725Z,999.19
2022-11-29T20:47:15.907Z,999.14
2022-11-29T20:52:20.045Z,999.12
2022-11-29T20:57:24.181Z,999.10
2022-11-29T21:02:26.460Z,999.09
2022-11-29T21:07:30.705Z,999.21
2022-11-29T21:12:34.793Z,999.18
2022-11-29T21:17:38.967Z,999.18
2022-11-29T21:22:43.104Z,999.30
2022-11-29T21:27:47.295Z,999.32
2022-11-29T21:32:51.403Z,999.31
2022-11-29T21:37:55.585Z,999.25
2022-11-29T21:42:59.772Z,999.25
2022-11-29T21:48:03.912Z,999.31
2022-11-29T21:53:08.098Z,999.37
2022-11-29T21:58:12.262Z,999.44
2022-11-29T22:03:16.408Z,999.37
2022-11-29T22:08:20.569Z,999.43
2022-11-29T22:13:24.727Z,999.45
2022-11-29T22:18:27.027Z,999.48
2022-11-29T22:23:31.169Z,999.49
2022-11-29T22:28:35.426Z,999.43
2022-11-29T22:33:39.473Z,999.43
2022-11-29T22:38:41.766Z,999.49
2022-11-29T22:43:45.942Z,999.52
2022-11-29T22:48:50.089Z,999.41
2022-11-29T22:53:54.248Z,999.48
2022-11-29T22:58:58.425Z,999.42
2022-11-29T23:04:02.580Z,999.46
2022-11-29T23:09:06.801Z,999.53
2022-11-29T23:14:10.927Z,999.61
2022-11-29T23:19:15.086Z,999.64
2022-11-29T23:24:19.229Z,999.67
2022-11-29T23:29:23.377Z,999.63
2022-11-29T23:34:27.527Z,999.67
2022-11-29T23:39:31.753Z,999.66
2022-11-29T23:44:35.886Z,999.75
2022-11-29T23:49:40.014Z,999.78
2022-11-29T23:54:44.535Z,999.75
2022-11-29T23:59:48.381Z,999.83
